createdAt,value
2023-02-19T00:00:48.110Z,89.92
2023-02-19T00:01:48.140Z,89.61
2023-02-19T00:02:48.098Z,90.02
2023-02-19T00:03:48.215Z,90.37
2023-02-19T00:04:48.130Z,90.53
2023-02-19T00:05:48.088Z,90.64
2023-02-19T00:06:48.062Z,90.53
2023-02-19T00:07:48.095Z,90.23
2023-02-19T00:08:48.101Z,89.72
2023-02-19T00:09:48.024Z,89.72
2023-02-19T00:10:50.318Z,90.02
2023-02-19T00:11:48.172Z,90.23
2023-02-19T00:12:48.052Z,89.82
2023-02-19T00:13:48.057Z,90.12
2023-02-19T00:14:48.108Z,89.92
2023-02-19T00:15:48.637Z,90.02
2023-02-19T00:16:48.005Z,89.92
2023-02-19T00:17:49.148Z,89.92
2023-02-19T00:18:48.029Z,90.02
2023-02-19T00:19:48.197Z,89.72
2023-02-19T00:20:48.981Z,89.97
2023-02-19T00:21:48.156Z,90.53
2023-02-19T00:22:48.511Z,90.43
2023-02-19T00:23:47.976Z,90.27
2023-02-19T00:24:49.319Z,90.43
2023-02-19T00:25:49.056Z,90.27
2023-02-19T00:26:48.009Z,90.43
2023-02-19T00:27:48.613Z,90.23
2023-02-19T00:28:47.896Z,90.33
2023-02-19T00:29:48.516Z,89.92
2023-02-19T00:30:47.931Z,89.82
2023-02-19T00:31:48.243Z,89.82
2023-02-19T00:32:47.905Z,89.92
2023-02-19T00:33:48.011Z,89.82
2023-02-19T00:34:48.011Z,90.12
2023-02-19T00:35:47.869Z,90.02
2023-02-19T00:36:48.692Z,90.12
2023-02-19T00:37:47.905Z,89.82
2023-02-19T00:38:48.552Z,89.92
2023-02-19T00:39:47.816Z,89.61
2023-02-19T00:40:48.616Z,89.92
2023-02-19T00:41:48.612Z,90.12
2023-02-19T00:42:47.853Z,90.23
2023-02-19T00:43:48.009Z,90.23
2023-02-19T00:44:47.828Z,90.43
2023-02-19T00:45:48.624Z,90.19
2023-02-19T00:46:48.661Z,90.12
2023-02-19T00:47:48.757Z,90.12
2023-02-19T00:48:47.864Z,89.82
2023-02-19T00:49:47.801Z,90.12
2023-02-19T00:50:47.784Z,90.33
2023-02-19T00:51:47.843Z,90.33
2023-02-19T00:52:47.768Z,90.64
2023-02-19T00:53:47.903Z,90.58
2023-02-19T00:54:47.773Z,90.23
2023-02-19T00:55:47.762Z,90.47
2023-02-19T00:56:47.728Z,90.33
2023-02-19T00:57:47.741Z,89.82
2023-02-19T00:58:47.832Z,90.43
2023-02-19T00:59:47.749Z,89.92
2023-02-19T01:00:47.700Z,89.82
2023-02-19T01:01:47.715Z,89.92
2023-02-19T01:02:47.676Z,89.92
2023-02-19T01:03:47.687Z,89.92
2023-02-19T01:04:47.774Z,90.02
2023-02-19T01:05:47.738Z,89.72
2023-02-19T01:06:47.757Z,89.82
2023-02-19T01:07:47.687Z,90.23
2023-02-19T01:08:47.656Z,90.33
2023-02-19T01:09:47.622Z,90.64
2023-02-19T01:10:47.674Z,90.68
2023-02-19T01:11:47.665Z,90.23
2023-02-19T01:12:47.631Z,89.92
2023-02-19T01:13:47.659Z,90.12
2023-02-19T01:14:47.691Z,89.86
2023-02-19T01:15:48.728Z,90.33
2023-02-19T01:16:47.649Z,90.02
2023-02-19T01:17:47.588Z,90.27
2023-02-19T01:18:47.583Z,90.12
2023-02-19T01:19:47.587Z,90.02
2023-02-19T01:20:47.590Z,90.02
2023-02-19T01:21:47.606Z,89.72
2023-02-19T01:22:47.550Z,90.43
2023-02-19T01:23:47.542Z,89.72
2023-02-19T01:24:47.536Z,90.02
2023-02-19T01:25:48.532Z,89.82
2023-02-19T01:26:47.557Z,90.39
2023-02-19T01:27:47.506Z,89.82
2023-02-19T01:28:47.532Z,90.23
2023-02-19T01:29:47.590Z,89.65
2023-02-19T01:30:47.589Z,90.33
2023-02-19T01:31:47.654Z,89.61
2023-02-19T01:32:47.521Z,90.74
2023-02-19T01:33:47.543Z,89.92
2023-02-19T01:34:47.520Z,90.02
2023-02-19T01:35:47.520Z,89.72
2023-02-19T01:36:47.512Z,90.33
2023-02-19T01:37:47.530Z,89.98
2023-02-19T01:38:47.469Z,89.97
2023-02-19T01:39:47.621Z,90.33
2023-02-19T01:40:47.442Z,90.23
2023-02-19T01:41:47.585Z,89.61
2023-02-19T01:42:47.429Z,90.33
2023-02-19T01:43:47.443Z,90.23
2023-02-19T01:44:47.442Z,90.43
2023-02-19T01:45:47.443Z,90.53
2023-02-19T01:46:47.786Z,91.05
2023-02-19T01:47:47.428Z,90.84
2023-02-19T01:48:47.662Z,90.74
2023-02-19T01:49:47.384Z,91.15
2023-02-19T01:50:47.419Z,91.09
2023-02-19T01:51:47.379Z,91.05
2023-02-19T01:52:47.383Z,91.60
2023-02-19T01:53:47.359Z,91.56
2023-02-19T01:54:47.413Z,91.46
2023-02-19T01:55:47.349Z,91.91
2023-02-19T01:56:48.345Z,91.91
2023-02-19T01:57:47.421Z,92.21
2023-02-19T01:58:47.394Z,92.01
2023-02-19T01:59:47.360Z,91.50
2023-02-19T02:00:47.331Z,91.46
2023-02-19T02:01:47.354Z,91.80
2023-02-19T02:02:47.294Z,92.21
2023-02-19T02:03:48.321Z,92.32
2023-02-19T02:04:47.285Z,92.42
2023-02-19T02:05:47.340Z,91.50
2023-02-19T02:06:47.290Z,91.50
2023-02-19T02:07:48.137Z,92.01
2023-02-19T02:08:47.325Z,91.60
2023-02-19T02:09:47.269Z,91.80
2023-02-19T02:10:48.158Z,91.35
2023-02-19T02:11:48.117Z,91.80
2023-02-19T02:12:47.639Z,92.21
2023-02-19T02:13:47.230Z,91.70
2023-02-19T02:14:47.274Z,91.50
2023-02-19T02:15:48.133Z,92.01
2023-02-19T02:16:47.222Z,92.21
2023-02-19T02:17:47.237Z,92.01
2023-02-19T02:18:47.240Z,92.27
2023-02-19T02:19:47.186Z,91.80
2023-02-19T02:20:47.223Z,92.32
2023-02-19T02:21:47.218Z,91.80
2023-02-19T02:22:47.186Z,92.11
2023-02-19T02:23:47.261Z,91.39
2023-02-19T02:24:47.151Z,91.60
2023-02-19T02:25:47.204Z,91.25
2023-02-19T02:26:47.224Z,91.66
2023-02-19T02:27:47.213Z,91.09
2023-02-19T02:28:47.198Z,91.46
2023-02-19T02:29:47.169Z,91.46
2023-02-19T02:30:47.145Z,91.15
2023-02-19T02:31:47.212Z,91.46
2023-02-19T02:32:47.172Z,91.56
2023-02-19T02:33:47.164Z,91.50
2023-02-19T02:34:47.138Z,91.25
2023-02-19T02:35:47.215Z,91.46
2023-02-19T02:36:47.101Z,91.56
2023-02-19T02:37:47.117Z,90.99
2023-02-19T02:38:47.091Z,91.05
2023-02-19T02:39:47.104Z,91.56
2023-02-19T02:40:47.117Z,91.96
2023-02-19T02:41:47.044Z,90.94
2023-02-19T02:42:47.079Z,90.94
2023-02-19T02:43:47.074Z,90.64
2023-02-19T02:44:47.056Z,91.05
2023-02-19T02:45:47.041Z,91.96
2023-02-19T02:46:47.064Z,90.74
2023-02-19T02:47:47.025Z,92.01
2023-02-19T02:48:47.012Z,91.15
2023-02-19T02:49:47.623Z,90.53
2023-02-19T02:50:47.020Z,90.53
2023-02-19T02:51:46.987Z,90.43
2023-02-19T02:52:46.994Z,90.43
2023-02-19T02:53:47.018Z,90.02
2023-02-19T02:54:46.991Z,90.12
2023-02-19T02:55:46.986Z,90.23
2023-02-19T02:56:47.026Z,90.33
2023-02-19T02:57:46.938Z,90.02
2023-02-19T02:58:46.961Z,90.33
2023-02-19T02:59:46.935Z,90.53
2023-02-19T03:00:46.928Z,89.67
2023-02-19T03:01:46.936Z,89.67
2023-02-19T03:02:46.908Z,90.43
2023-02-19T03:03:46.956Z,90.43
2023-02-19T03:04:47.714Z,90.33
2023-02-19T03:05:46.914Z,90.12
2023-02-19T03:06:46.938Z,90.43
2023-02-19T03:07:46.905Z,89.92
2023-02-19T03:08:46.876Z,89.61
2023-02-19T03:09:49.354Z,89.67
2023-02-19T03:10:46.871Z,89.78
2023-02-19T03:11:46.878Z,89.88
2023-02-19T03:12:46.858Z,89.58
2023-02-19T03:13:46.869Z,90.39
2023-02-19T03:14:46.838Z,90.29
2023-02-19T03:15:46.849Z,89.17
2023-02-19T03:16:47.059Z,89.37
2023-02-19T03:17:46.862Z,89.88
2023-02-19T03:18:46.852Z,89.20
2023-02-19T03:19:46.807Z,89.31
2023-02-19T03:20:46.812Z,88.96
2023-02-19T03:21:46.874Z,88.90
2023-02-19T03:22:46.810Z,89.61
2023-02-19T03:23:46.778Z,89.98
2023-02-19T03:24:46.824Z,89.61
2023-02-19T03:25:46.759Z,90.08
2023-02-19T03:26:46.796Z,90.43
2023-02-19T03:27:46.824Z,89.37
2023-02-19T03:28:46.775Z,89.17
2023-02-19T03:29:46.735Z,89.41
2023-02-19T03:30:46.734Z,89.37
2023-02-19T03:31:46.823Z,89.17
2023-02-19T03:32:46.730Z,89.26
2023-02-19T03:33:46.753Z,89.17
2023-02-19T03:34:46.707Z,89.37
2023-02-19T03:35:46.705Z,89.31
2023-02-19T03:36:47.719Z,89.58
2023-02-19T03:37:46.751Z,89.37
2023-02-19T03:38:46.712Z,89.06
2023-02-19T03:39:46.717Z,89.37
2023-02-19T03:40:46.665Z,89.31
2023-02-19T03:41:46.654Z,89.37
2023-02-19T03:42:46.672Z,89.06
2023-02-19T03:43:46.673Z,89.17
2023-02-19T03:44:46.660Z,89.37
2023-02-19T03:45:46.674Z,89.31
2023-02-19T03:46:46.722Z,89.37
2023-02-19T03:47:46.705Z,89.37
2023-02-19T03:48:46.664Z,89.37
2023-02-19T03:49:48.925Z,89.61
2023-02-19T03:50:47.602Z,90.23
2023-02-19T03:51:46.624Z,90.33
2023-02-19T03:52:46.614Z,90.08
2023-02-19T03:53:46.608Z,90.02
2023-02-19T03:54:46.591Z,89.37
2023-02-19T03:55:46.591Z,90.23
2023-02-19T03:56:46.578Z,90.08
2023-02-19T03:57:46.592Z,89.78
2023-02-19T03:58:48.128Z,90.19
2023-02-19T03:59:46.548Z,89.88
2023-02-19T04:00:46.552Z,89.98
2023-02-19T04:01:46.636Z,89.98
2023-02-19T04:02:46.533Z,89.78
2023-02-19T04:03:46.529Z,90.29
2023-02-19T04:04:46.558Z,90.19
2023-02-19T04:05:46.573Z,89.88
2023-02-19T04:06:46.569Z,89.98
2023-02-19T04:07:46.526Z,90.08
2023-02-19T04:08:46.525Z,89.88
2023-02-19T04:09:46.510Z,90.23
2023-02-19T04:10:46.501Z,91.92
2023-02-19T04:11:46.478Z,91.61
2023-02-19T04:12:47.133Z,91.35
2023-02-19T04:13:46.469Z,91.41
2023-02-19T04:14:46.499Z,90.49
2023-02-19T04:15:46.515Z,91.00
2023-02-19T04:16:46.552Z,90.29
2023-02-19T04:17:46.433Z,91.00
2023-02-19T04:18:46.478Z,91.56
2023-02-19T04:19:46.414Z,91.52
2023-02-19T04:20:46.420Z,90.39
2023-02-19T04:21:46.426Z,89.98
2023-02-19T04:22:46.430Z,89.88
2023-02-19T04:23:46.418Z,89.37
2023-02-19T04:24:46.387Z,89.37
2023-02-19T04:25:46.413Z,89.58
2023-02-19T04:26:46.557Z,89.37
2023-02-19T04:27:46.381Z,89.02
2023-02-19T04:28:46.385Z,89.26
2023-02-19T04:29:46.380Z,89.26
2023-02-19T04:30:46.402Z,89.37
2023-02-19T04:31:46.457Z,89.02
2023-02-19T04:32:46.358Z,89.02
2023-02-19T04:33:46.396Z,88.71
2023-02-19T04:34:46.350Z,88.71
2023-02-19T04:35:46.333Z,88.10
2023-02-19T04:36:46.312Z,88.20
2023-02-19T04:37:46.449Z,88.20
2023-02-19T04:38:46.305Z,88.20
2023-02-19T04:39:46.389Z,87.18
2023-02-19T04:40:47.227Z,87.08
2023-02-19T04:41:46.283Z,86.26
2023-02-19T04:42:46.344Z,86.00
2023-02-19T04:43:47.149Z,86.41
2023-02-19T04:44:46.365Z,86.10
2023-02-19T04:45:46.281Z,86.41
2023-02-19T04:46:46.266Z,85.55
2023-02-19T04:47:46.270Z,85.14
2023-02-19T04:48:47.175Z,84.83
2023-02-19T04:49:46.335Z,85.24
2023-02-19T04:50:46.257Z,85.24
2023-02-19T04:51:46.220Z,84.63
2023-02-19T04:52:46.252Z,85.04
2023-02-19T04:53:46.215Z,85.18
2023-02-19T04:54:46.240Z,85.49
2023-02-19T04:55:46.207Z,85.45
2023-02-19T04:56:46.214Z,85.28
2023-02-19T04:57:46.227Z,85.18
2023-02-19T04:58:47.148Z,84.83
2023-02-19T04:59:46.190Z,84.83
2023-02-19T05:00:46.239Z,83.92
2023-02-19T05:01:46.248Z,84.01
2023-02-19T05:02:46.190Z,83.87
2023-02-19T05:03:46.183Z,83.37
2023-02-19T05:04:46.171Z,83.30
2023-02-19T05:05:47.179Z,83.40
2023-02-19T05:06:46.206Z,83.10
2023-02-19T05:07:46.139Z,83.75
2023-02-19T05:08:46.203Z,83.04
2023-02-19T05:09:46.154Z,83.10
2023-02-19T05:10:47.182Z,83.00
2023-02-19T05:11:46.145Z,83.81
2023-02-19T05:12:46.163Z,83.40
2023-02-19T05:13:46.145Z,82.59
2023-02-19T05:14:46.084Z,82.49
2023-02-19T05:15:46.213Z,82.73
2023-02-19T05:16:46.060Z,82.83
2023-02-19T05:17:46.157Z,82.73
2023-02-19T05:18:46.135Z,83.40
2023-02-19T05:19:46.051Z,83.44
2023-02-19T05:20:46.093Z,83.40
2023-02-19T05:21:46.085Z,82.79
2023-02-19T05:22:46.040Z,83.40
2023-02-19T05:23:46.022Z,83.37
2023-02-19T05:24:46.701Z,83.71
2023-02-19T05:25:46.047Z,84.94
2023-02-19T05:26:46.067Z,84.53
2023-02-19T05:27:46.019Z,84.59
2023-02-19T05:28:46.001Z,84.59
2023-02-19T05:29:45.979Z,84.08
2023-02-19T05:30:46.047Z,84.63
2023-02-19T05:31:46.054Z,84.83
2023-02-19T05:32:45.957Z,84.94
2023-02-19T05:33:45.943Z,84.98
2023-02-19T05:34:45.956Z,84.67
2023-02-19T05:35:45.960Z,84.98
2023-02-19T05:36:45.964Z,84.88
2023-02-19T05:37:46.000Z,83.40
2023-02-19T05:38:46.185Z,84.22
2023-02-19T05:39:45.922Z,83.16
2023-02-19T05:40:45.953Z,82.86
2023-02-19T05:41:45.944Z,83.04
2023-02-19T05:42:45.948Z,83.95
2023-02-19T05:43:45.913Z,83.44
2023-02-19T05:44:45.934Z,83.34
2023-02-19T05:45:45.906Z,83.44
2023-02-19T05:46:45.941Z,84.81
2023-02-19T05:47:45.902Z,83.14
2023-02-19T05:48:45.862Z,83.65
2023-02-19T05:49:45.849Z,83.81
2023-02-19T05:50:45.854Z,83.44
2023-02-19T05:51:45.845Z,83.14
2023-02-19T05:52:45.882Z,82.53
2023-02-19T05:53:45.829Z,83.44
2023-02-19T05:54:45.843Z,83.24
2023-02-19T05:55:45.934Z,83.44
2023-02-19T05:56:45.909Z,83.44
2023-02-19T05:57:45.830Z,83.54
2023-02-19T05:58:45.849Z,83.54
2023-02-19T05:59:45.881Z,83.34
2023-02-19T06:00:45.868Z,83.30
2023-02-19T06:01:45.830Z,82.89
2023-02-19T06:02:45.837Z,82.73
2023-02-19T06:03:45.867Z,82.93
2023-02-19T06:04:45.815Z,83.04
2023-02-19T06:05:45.784Z,82.73
2023-02-19T06:06:45.771Z,82.93
2023-02-19T06:07:45.771Z,82.63
2023-02-19T06:08:45.752Z,82.53
2023-02-19T06:09:45.795Z,82.42
2023-02-19T06:10:45.739Z,82.42
2023-02-19T06:11:45.760Z,81.87
2023-02-19T06:12:45.716Z,82.28
2023-02-19T06:13:45.735Z,81.71
2023-02-19T06:14:45.711Z,82.63
2023-02-19T06:15:45.751Z,83.04
2023-02-19T06:16:46.650Z,81.87
2023-02-19T06:17:45.708Z,81.67
2023-02-19T06:18:45.671Z,81.57
2023-02-19T06:19:45.721Z,81.87
2023-02-19T06:20:45.694Z,81.26
2023-02-19T06:21:45.714Z,82.18
2023-02-19T06:22:45.723Z,82.53
2023-02-19T06:23:45.672Z,83.07
2023-02-19T06:24:45.688Z,84.03
2023-02-19T06:25:45.719Z,83.48
2023-02-19T06:26:45.651Z,82.77
2023-02-19T06:27:45.636Z,83.38
2023-02-19T06:28:45.615Z,83.48
2023-02-19T06:29:45.660Z,83.69
2023-02-19T06:30:45.638Z,83.79
2023-02-19T06:31:48.240Z,83.48
2023-02-19T06:32:48.625Z,82.97
2023-02-19T06:33:47.623Z,83.48
2023-02-19T06:34:45.588Z,84.50
2023-02-19T06:35:45.603Z,84.09
2023-02-19T06:36:48.869Z,83.38
2023-02-19T06:37:47.193Z,84.81
2023-02-19T06:38:46.150Z,85.12
2023-02-19T06:39:47.756Z,85.02
2023-02-19T06:40:45.579Z,84.81
2023-02-19T06:41:45.537Z,84.91
2023-02-19T06:42:48.510Z,84.95
2023-02-19T06:43:46.199Z,84.85
2023-02-19T06:44:45.598Z,85.36
2023-02-19T06:45:46.739Z,84.71
2023-02-19T06:46:45.523Z,83.79
2023-02-19T06:47:46.694Z,83.69
2023-02-19T06:48:45.489Z,83.89
2023-02-19T06:49:45.495Z,84.91
2023-02-19T06:50:45.643Z,83.69
2023-02-19T06:51:45.482Z,83.44
2023-02-19T06:52:46.575Z,83.34
2023-02-19T06:53:45.667Z,82.83
2023-02-19T06:54:45.634Z,82.69
2023-02-19T06:55:47.834Z,82.79
2023-02-19T06:56:47.083Z,82.18
2023-02-19T06:57:46.531Z,82.35
2023-02-19T06:58:45.446Z,82.18
2023-02-19T06:59:45.469Z,81.63
2023-02-19T07:00:45.452Z,81.67
2023-02-19T07:01:46.256Z,83.24
2023-02-19T07:02:46.326Z,83.61
2023-02-19T07:03:45.644Z,82.65
2023-02-19T07:04:45.393Z,82.35
2023-02-19T07:05:45.423Z,82.28
2023-02-19T07:06:45.367Z,81.87
2023-02-19T07:07:46.180Z,82.97
2023-02-19T07:08:45.420Z,85.08
2023-02-19T07:09:45.446Z,84.67
2023-02-19T07:10:46.112Z,83.65
2023-02-19T07:11:46.671Z,83.65
2023-02-19T07:12:47.222Z,84.36
2023-02-19T07:13:45.342Z,83.75
2023-02-19T07:14:45.317Z,84.98
2023-02-19T07:15:45.460Z,84.88
2023-02-19T07:16:46.131Z,84.57
2023-02-19T07:17:47.127Z,84.71
2023-02-19T07:18:45.299Z,83.75
2023-02-19T07:19:45.312Z,83.95
2023-02-19T07:20:45.286Z,84.67
2023-02-19T07:21:49.263Z,84.67
2023-02-19T07:22:46.388Z,84.77
2023-02-19T07:23:45.578Z,83.44
2023-02-19T07:24:47.811Z,84.36
2023-02-19T07:25:45.257Z,83.65
2023-02-19T07:26:45.229Z,83.51
2023-02-19T07:27:45.268Z,83.40
2023-02-19T07:28:45.338Z,83.71
2023-02-19T07:29:46.250Z,83.61
2023-02-19T07:30:45.320Z,82.69
2023-02-19T07:31:45.217Z,83.61
2023-02-19T07:32:45.201Z,83.20
2023-02-19T07:33:45.222Z,83.38
2023-02-19T07:34:45.189Z,84.88
2023-02-19T07:35:45.233Z,83.14
2023-02-19T07:36:45.181Z,83.44
2023-02-19T07:37:45.201Z,83.24
2023-02-19T07:38:46.394Z,83.38
2023-02-19T07:39:45.157Z,83.24
2023-02-19T07:40:45.312Z,84.06
2023-02-19T07:41:45.176Z,83.71
2023-02-19T07:42:45.146Z,83.24
2023-02-19T07:43:45.151Z,83.79
2023-02-19T07:44:45.140Z,83.69
2023-02-19T07:45:45.242Z,83.44
2023-02-19T07:46:45.354Z,82.59
2023-02-19T07:47:45.657Z,82.89
2023-02-19T07:48:45.121Z,82.69
2023-02-19T07:49:45.123Z,82.08
2023-02-19T07:50:45.085Z,81.98
2023-02-19T07:51:45.157Z,81.67
2023-02-19T07:52:45.093Z,81.63
2023-02-19T07:53:45.070Z,81.23
2023-02-19T07:54:45.100Z,81.18
2023-02-19T07:55:45.084Z,81.70
2023-02-19T07:56:45.058Z,80.82
2023-02-19T07:57:45.065Z,80.61
2023-02-19T07:58:45.087Z,80.88
2023-02-19T07:59:45.036Z,80.64
2023-02-19T08:00:45.048Z,81.09
2023-02-19T08:01:45.074Z,80.07
2023-02-19T08:02:45.030Z,79.69
2023-02-19T08:03:45.012Z,80.88
2023-02-19T08:04:45.039Z,80.02
2023-02-19T08:05:45.019Z,79.32
2023-02-19T08:06:45.013Z,79.21
2023-02-19T08:07:44.992Z,79.75
2023-02-19T08:08:45.001Z,80.64
2023-02-19T08:09:44.977Z,81.25
2023-02-19T08:10:44.956Z,81.90
2023-02-19T08:11:44.989Z,82.51
2023-02-19T08:12:44.953Z,82.21
2023-02-19T08:13:44.957Z,82.31
2023-02-19T08:14:45.020Z,81.49
2023-02-19T08:15:44.933Z,82.31
2023-02-19T08:16:44.959Z,81.25
2023-02-19T08:17:44.919Z,81.04
2023-02-19T08:18:44.917Z,81.31
2023-02-19T08:19:44.926Z,81.01
2023-02-19T08:20:44.899Z,81.31
2023-02-19T08:21:44.880Z,81.31
2023-02-19T08:22:45.293Z,81.72
2023-02-19T08:23:44.864Z,82.23
2023-02-19T08:24:44.890Z,81.76
2023-02-19T08:25:45.066Z,81.45
2023-02-19T08:26:44.859Z,81.72
2023-02-19T08:27:44.854Z,82.78
2023-02-19T08:28:44.897Z,82.57
2023-02-19T08:29:44.838Z,83.09
2023-02-19T08:30:44.925Z,83.29
2023-02-19T08:31:44.924Z,83.29
2023-02-19T08:32:44.827Z,83.39
2023-02-19T08:33:44.815Z,82.43
2023-02-19T08:34:44.828Z,81.04
2023-02-19T08:35:44.836Z,82.07
2023-02-19T08:36:44.792Z,82.27
2023-02-19T08:37:44.854Z,82.07
2023-02-19T08:38:44.802Z,82.47
2023-02-19T08:39:44.769Z,82.47
2023-02-19T08:40:44.792Z,82.57
2023-02-19T08:41:44.761Z,83.29
2023-02-19T08:42:44.761Z,82.47
2023-02-19T08:43:44.777Z,82.55
2023-02-19T08:44:44.744Z,82.61
2023-02-19T08:45:44.736Z,82.51
2023-02-19T08:46:44.770Z,82.92
2023-02-19T08:47:44.734Z,82.82
2023-02-19T08:48:44.703Z,81.76
2023-02-19T08:49:44.755Z,81.56
2023-02-19T08:50:44.700Z,81.76
2023-02-19T08:51:44.690Z,80.80
2023-02-19T08:52:44.682Z,79.72
2023-02-19T08:53:44.703Z,80.23
2023-02-19T08:54:44.658Z,81.01
2023-02-19T08:55:44.679Z,80.94
2023-02-19T08:56:44.664Z,81.01
2023-02-19T08:57:44.636Z,80.40
2023-02-19T08:58:44.656Z,80.43
2023-02-19T08:59:44.642Z,81.15
2023-02-19T09:00:44.629Z,81.21
2023-02-19T09:01:44.739Z,79.89
2023-02-19T09:02:44.599Z,80.43
2023-02-19T09:03:44.684Z,80.91
2023-02-19T09:04:44.631Z,78.97
2023-02-19T09:05:44.586Z,78.91
2023-02-19T09:06:44.578Z,80.02
2023-02-19T09:07:44.600Z,80.57
2023-02-19T09:08:45.232Z,80.23
2023-02-19T09:09:44.562Z,79.52
2023-02-19T09:10:45.660Z,79.68
2023-02-19T09:11:44.575Z,78.77
2023-02-19T09:12:44.681Z,78.91
2023-02-19T09:13:44.573Z,78.80
2023-02-19T09:14:45.116Z,78.60
2023-02-19T09:15:44.548Z,78.80
2023-02-19T09:16:44.561Z,78.77
2023-02-19T09:18:04.043Z,79.38
2023-02-19T09:18:44.500Z,78.77
2023-02-19T09:19:44.519Z,78.91
2023-02-19T09:20:44.481Z,79.62
2023-02-19T09:21:44.497Z,79.82
2023-02-19T09:22:44.491Z,80.47
2023-02-19T09:23:44.471Z,81.35
2023-02-19T09:24:44.496Z,80.27
2023-02-19T09:25:44.568Z,80.27
2023-02-19T09:26:44.717Z,80.88
2023-02-19T09:27:44.453Z,81.18
2023-02-19T09:28:44.449Z,80.78
2023-02-19T09:29:44.634Z,81.23
2023-02-19T09:30:44.472Z,80.91
2023-02-19T09:31:45.341Z,81.53
2023-02-19T09:32:44.482Z,82.35
2023-02-19T09:33:44.433Z,82.24
2023-02-19T09:34:44.391Z,83.10
2023-02-19T09:35:44.513Z,83.92
2023-02-19T09:36:44.419Z,83.37
2023-02-19T09:37:44.412Z,82.65
2023-02-19T09:38:44.389Z,82.61
2023-02-19T09:39:44.357Z,83.02
2023-02-19T09:40:44.443Z,82.69
2023-02-19T09:41:44.359Z,83.07
2023-02-19T09:42:44.350Z,83.18
2023-02-19T09:43:44.406Z,84.03
2023-02-19T09:44:44.339Z,84.69
2023-02-19T09:45:44.336Z,85.30
2023-02-19T09:46:44.322Z,85.58
2023-02-19T09:47:44.318Z,86.81
2023-02-19T09:48:45.694Z,86.57
2023-02-19T09:49:44.296Z,86.02
2023-02-19T09:50:45.380Z,84.69
2023-02-19T09:51:44.285Z,85.58
2023-02-19T09:52:44.359Z,87.57
2023-02-19T09:53:44.283Z,87.98
2023-02-19T09:54:45.506Z,88.57
2023-02-19T09:55:45.036Z,89.75
2023-02-19T09:56:44.275Z,90.26
2023-02-19T09:57:44.275Z,90.32
2023-02-19T09:58:44.310Z,90.22
2023-02-19T09:59:44.237Z,90.42
2023-02-19T10:00:44.231Z,90.32
2023-02-19T10:01:44.234Z,89.90
2023-02-19T10:02:44.207Z,90.42
2023-02-19T10:03:44.655Z,90.16
2023-02-19T10:04:44.301Z,90.16
2023-02-19T10:05:45.078Z,90.46
2023-02-19T10:06:44.189Z,90.32
2023-02-19T10:07:44.239Z,89.70
2023-02-19T10:08:45.643Z,89.90
2023-02-19T10:09:45.165Z,90.62
2023-02-19T10:10:44.180Z,90.05
2023-02-19T10:11:44.149Z,89.95
2023-02-19T10:12:44.150Z,89.95
2023-02-19T10:13:44.171Z,89.81
2023-02-19T10:14:44.147Z,89.19
2023-02-19T10:15:44.214Z,89.13
2023-02-19T10:16:44.137Z,89.54
2023-02-19T10:17:44.360Z,89.54
2023-02-19T10:18:44.113Z,89.64
2023-02-19T10:19:44.112Z,89.84
2023-02-19T10:20:44.113Z,89.58
2023-02-19T10:21:44.155Z,90.05
2023-02-19T10:22:44.092Z,89.64
2023-02-19T10:23:45.099Z,89.81
2023-02-19T10:24:44.086Z,89.15
2023-02-19T10:25:44.099Z,88.53
2023-02-19T10:26:44.089Z,88.33
2023-02-19T10:27:44.172Z,88.39
2023-02-19T10:28:44.060Z,88.29
2023-02-19T10:29:44.054Z,87.57
2023-02-19T10:30:44.073Z,87.16
2023-02-19T10:31:44.328Z,88.18
2023-02-19T10:32:44.025Z,87.26
2023-02-19T10:33:44.029Z,88.20
2023-02-19T10:34:44.013Z,85.99
2023-02-19T10:35:44.011Z,87.02
2023-02-19T10:36:44.152Z,85.83
2023-02-19T10:37:44.031Z,86.24
2023-02-19T10:38:44.663Z,86.44
2023-02-19T10:39:44.115Z,85.93
2023-02-19T10:40:43.986Z,85.85
2023-02-19T10:41:44.456Z,85.16
2023-02-19T10:42:44.967Z,84.79
2023-02-19T10:43:43.980Z,84.79
2023-02-19T10:44:43.958Z,85.14
2023-02-19T10:45:43.947Z,85.10
2023-02-19T10:46:43.986Z,84.01
2023-02-19T10:47:44.027Z,84.93
2023-02-19T10:48:43.989Z,83.97
2023-02-19T10:49:43.977Z,84.38
2023-02-19T10:50:43.962Z,84.69
2023-02-19T10:51:44.889Z,85.89
2023-02-19T10:52:43.901Z,85.93
2023-02-19T10:53:43.891Z,86.51
2023-02-19T10:54:43.904Z,86.16
2023-02-19T10:55:43.929Z,86.26
2023-02-19T10:56:43.895Z,86.43
2023-02-19T10:57:43.869Z,85.85
2023-02-19T10:58:43.883Z,85.89
2023-02-19T10:59:46.234Z,86.77
2023-02-19T11:00:44.673Z,86.16
2023-02-19T11:01:43.911Z,87.43
2023-02-19T11:02:43.844Z,87.12
2023-02-19T11:03:43.842Z,87.57
2023-02-19T11:04:43.864Z,88.08
2023-02-19T11:05:43.814Z,87.16
2023-02-19T11:06:43.831Z,87.57
2023-02-19T11:07:43.804Z,87.20
2023-02-19T11:08:43.797Z,87.61
2023-02-19T11:09:43.802Z,87.57
2023-02-19T11:10:43.837Z,86.51
2023-02-19T11:11:43.785Z,85.79
2023-02-19T11:12:43.759Z,85.69
2023-02-19T11:13:44.020Z,86.71
2023-02-19T11:14:44.139Z,86.85
2023-02-19T11:15:43.774Z,86.67
2023-02-19T11:16:43.844Z,86.53
2023-02-19T11:17:43.747Z,85.61
2023-02-19T11:18:43.739Z,85.06
2023-02-19T11:19:43.811Z,84.91
2023-02-19T11:20:43.743Z,83.18
2023-02-19T11:21:43.716Z,83.32
2023-02-19T11:22:43.702Z,83.93
2023-02-19T11:23:43.700Z,83.48
2023-02-19T11:24:43.696Z,82.05
2023-02-19T11:25:43.681Z,81.65
2023-02-19T11:26:43.772Z,82.12
2023-02-19T11:27:43.845Z,81.53
2023-02-19T11:28:43.660Z,79.45
2023-02-19T11:29:43.654Z,78.60
2023-02-19T11:30:43.712Z,77.98
2023-02-19T11:31:43.742Z,77.98
2023-02-19T11:32:44.652Z,76.42
2023-02-19T11:33:43.641Z,77.89
2023-02-19T11:34:44.644Z,78.66
2023-02-19T11:35:43.685Z,78.56
2023-02-19T11:36:43.600Z,77.14
2023-02-19T11:37:43.636Z,77.78
2023-02-19T11:38:43.634Z,78.30
2023-02-19T11:39:43.634Z,79.14
2023-02-19T11:40:43.586Z,79.11
2023-02-19T11:41:43.637Z,78.66
2023-02-19T11:42:43.633Z,78.53
2023-02-19T11:43:44.168Z,77.03
2023-02-19T11:44:44.588Z,78.94
2023-02-19T11:45:43.722Z,80.61
2023-02-19T11:46:43.631Z,81.26
2023-02-19T11:47:43.543Z,82.42
2023-02-19T11:48:43.573Z,82.73
2023-02-19T11:49:43.529Z,82.87
2023-02-19T11:50:43.573Z,83.69
2023-02-19T11:51:44.956Z,83.18
2023-02-19T11:52:43.509Z,83.89
2023-02-19T11:53:43.523Z,82.05
2023-02-19T11:54:43.506Z,82.73
2023-02-19T11:55:43.868Z,81.65
2023-02-19T11:56:43.491Z,83.05
2023-02-19T11:57:44.169Z,83.11
2023-02-19T11:58:43.490Z,83.15
2023-02-19T11:59:43.465Z,83.59
2023-02-19T12:00:43.507Z,82.05
2023-02-19T12:01:43.456Z,82.75
2023-02-19T12:02:43.452Z,83.56
2023-02-19T12:03:43.461Z,83.25
2023-02-19T12:04:43.465Z,85.10
2023-02-19T12:05:43.412Z,83.76
2023-02-19T12:06:43.498Z,84.17
2023-02-19T12:07:43.536Z,83.46
2023-02-19T12:08:44.193Z,84.79
2023-02-19T12:09:43.436Z,84.75
2023-02-19T12:10:43.393Z,83.52
2023-02-19T12:11:43.399Z,83.48
2023-02-19T12:12:43.399Z,82.53
2023-02-19T12:13:43.426Z,82.12
2023-02-19T12:14:43.360Z,81.46
2023-02-19T12:15:43.379Z,81.43
2023-02-19T12:16:43.457Z,79.62
2023-02-19T12:17:43.347Z,76.97
2023-02-19T12:18:43.376Z,76.69
2023-02-19T12:19:43.361Z,75.37
2023-02-19T12:20:43.364Z,73.29
2023-02-19T12:21:43.324Z,72.89
2023-02-19T12:22:43.395Z,71.53
2023-02-19T12:23:43.334Z,71.57
2023-02-19T12:24:43.361Z,71.57
2023-02-19T12:25:43.368Z,69.98
2023-02-19T12:26:44.305Z,71.03
2023-02-19T12:27:43.333Z,69.54
2023-02-19T12:28:43.288Z,68.70
2023-02-19T12:29:43.254Z,69.54
2023-02-19T12:30:43.278Z,69.91
2023-02-19T12:31:43.405Z,68.19
2023-02-19T12:32:43.269Z,67.00
2023-02-19T12:33:43.289Z,67.10
2023-02-19T12:34:43.254Z,67.07
2023-02-19T12:35:43.250Z,66.74
2023-02-19T12:36:43.250Z,65.58
2023-02-19T12:37:43.228Z,67.30
2023-02-19T12:38:43.252Z,67.30
2023-02-19T12:39:43.203Z,67.13
2023-02-19T12:40:43.237Z,68.41
2023-02-19T12:41:43.202Z,69.02
2023-02-19T12:42:43.193Z,71.70
2023-02-19T12:43:43.198Z,71.47
2023-02-19T12:44:44.169Z,69.40
2023-02-19T12:45:43.192Z,69.36
2023-02-19T12:46:43.170Z,71.26
2023-02-19T12:47:43.151Z,70.68
2023-02-19T12:48:43.169Z,68.75
2023-02-19T12:49:43.137Z,67.91
2023-02-19T12:50:43.153Z,68.21
2023-02-19T12:51:43.180Z,68.44
2023-02-19T12:52:43.127Z,69.77